Bashaw, Canada
Current Conditions -  °F | °C
As of 6:00 AM on Saturday 25 Oct 2014 (Local Time) from CYQF Reporting Station
Broken Clouds Broken Clouds  
Wind Chill: 23°   Ceiling: 20000
Heat Index: 23°   Visibility: 15mi
Dew Point: 21°   Wind: 0mph
Humidity: 93%   Direction: NA
Pressure: 30.01"   Gusts: NA
Location:  52.58°N, 112.97°W
Report Text: CYQF 251200Z 00000KT 15SM SCT140 BKN200 M05/M06 A3001 RMK AC3CI3 SLP203
Loading
Personal Weather Stations






























Interactive Weather Map
Tropical Storm Tracking
New forecast layout! Learn more

10-Day Weather Forecast

Advertisements
Track Severe Weather on mobile